sensor_id;sensor_type;location;lat;lon;timestamp;pressure;altitude;pressure_sealevel;temperature;humidity
39443;BME280;25147;52.142;9.960;2023-09-07T00:01:06;100977.72;;;15.07;100.00
39443;BME280;25147;52.142;9.960;2023-09-07T00:03:36;101100.94;;;15.71;100.00
39443;BME280;25147;52.142;9.960;2023-09-07T00:06:06;101135.41;;;15.99;100.00
39443;BME280;25147;52.142;9.960;2023-09-07T00:08:33;100977.00;;;15.00;100.00
39443;BME280;25147;52.142;9.960;2023-09-07T00:11:03;101030.00;;;15.24;100.00
39443;BME280;25147;52.142;9.960;2023-09-07T00:13:30;101038.06;;;15.19;100.00
39443;BME280;25147;52.142;9.960;2023-09-07T00:15:59;101150.63;;;15.89;100.00
39443;BME280;25147;52.142;9.960;2023-09-07T00:18:27;101248.88;;;16.36;100.00
39443;BME280;25147;52.142;9.960;2023-09-07T00:20:54;101244.41;;;16.38;100.00
39443;BME280;25147;52.142;9.960;2023-09-07T00:23:21;100976.94;;;14.68;100.00
39443;BME280;25147;52.142;9.960;2023-09-07T00:25:48;100972.09;;;14.49;100.00
39443;BME280;25147;52.142;9.960;2023-09-07T00:28:22;101080.44;;;15.12;100.00
39443;BME280;25147;52.142;9.960;2023-09-07T00:30:49;101058.44;;;15.13;100.00
39443;BME280;25147;52.142;9.960;2023-09-07T00:33:22;100975.47;;;14.54;100.00
39443;BME280;25147;52.142;9.960;2023-09-07T00:35:54;101121.94;;;15.41;100.00
39443;BME280;25147;52.142;9.960;2023-09-07T00:38:25;101075.34;;;15.04;100.00
39443;BME280;25147;52.142;9.960;2023-09-07T00:40:54;101013.06;;;14.62;100.00
39443;BME280;25147;52.142;9.960;2023-09-07T00:43:30;100978.97;;;14.55;100.00
39443;BME280;25147;52.142;9.960;2023-09-07T00:46:05;101268.09;;;16.10;100.00
39443;BME280;25147;52.142;9.960;2023-09-07T00:48:38;101013.75;;;14.71;100.00
39443;BME280;25147;52.142;9.960;2023-09-07T00:51:08;101117.19;;;15.19;100.00
39443;BME280;25147;52.142;9.960;2023-09-07T00:53:36;101257.78;;;15.99;100.00
39443;BME280;25147;52.142;9.960;2023-09-07T00:56:04;100955.84;;;14.29;100.00
39443;BME280;25147;52.142;9.960;2023-09-07T00:58:32;101166.81;;;15.41;100.00
39443;BME280;25147;52.142;9.960;2023-09-07T01:01:00;100967.13;;;14.35;100.00
39443;BME280;25147;52.142;9.960;2023-09-07T01:03:28;101235.06;;;15.92;100.00
39443;BME280;25147;52.142;9.960;2023-09-07T01:06:02;100968.97;;;14.32;100.00
39443;BME280;25147;52.142;9.960;2023-09-07T01:08:35;101133.81;;;15.23;100.00
39443;BME280;25147;52.142;9.960;2023-09-07T01:11:12;101056.69;;;14.76;100.00
39443;BME280;25147;52.142;9.960;2023-09-07T01:13:40;101231.88;;;15.79;100.00
39443;BME280;25147;52.142;9.960;2023-09-07T01:16:07;101035.97;;;14.60;100.00
39443;BME280;25147;52.142;9.960;2023-09-07T01:18:36;101134.03;;;15.14;100.00
39443;BME280;25147;52.142;9.960;2023-09-07T01:21:06;101016.00;;;14.49;100.00
39443;BME280;25147;52.142;9.960;2023-09-07T01:23:36;101107.88;;;15.04;100.00
39443;BME280;25147;52.142;9.960;2023-09-07T01:26:05;101152.34;;;15.20;100.00
39443;BME280;25147;52.142;9.960;2023-09-07T01:28:33;100922.81;;;13.75;100.00
39443;BME280;25147;52.142;9.960;2023-09-07T01:31:00;101142.91;;;15.10;100.00
39443;BME280;25147;52.142;9.960;2023-09-07T01:33:28;101116.31;;;14.81;100.00
39443;BME280;25147;52.142;9.960;2023-09-07T01:35:55;100960.94;;;13.97;100.00
39443;BME280;25147;52.142;9.960;2023-09-07T01:38:22;101028.72;;;14.30;100.00
39443;BME280;25147;52.142;9.960;2023-09-07T01:40:51;101173.56;;;15.15;100.00
39443;BME280;25147;52.142;9.960;2023-09-07T01:43:19;101071.88;;;14.64;100.00
39443;BME280;25147;52.142;9.960;2023-09-07T01:45:46;101103.06;;;14.84;100.00
39443;BME280;25147;52.142;9.960;2023-09-07T01:48:14;101149.97;;;15.08;100.00
39443;BME280;25147;52.142;9.960;2023-09-07T01:50:41;100982.13;;;13.91;100.00
39443;BME280;25147;52.142;9.960;2023-09-07T01:53:09;101246.44;;;15.57;100.00
39443;BME280;25147;52.142;9.960;2023-09-07T01:55:36;101011.69;;;14.04;100.00
39443;BME280;25147;52.142;9.960;2023-09-07T01:58:04;101144.41;;;14.82;100.00
39443;BME280;25147;52.142;9.960;2023-09-07T02:00:36;101001.34;;;13.96;100.00
39443;BME280;25147;52.142;9.960;2023-09-07T02:03:03;100973.78;;;13.71;100.00
39443;BME280;25147;52.142;9.960;2023-09-07T02:05:33;101259.03;;;15.45;100.00
39443;BME280;25147;52.142;9.960;2023-09-07T02:08:06;101040.59;;;14.09;100.00
39443;BME280;25147;52.142;9.960;2023-09-07T02:10:34;101076.13;;;14.30;100.00
39443;BME280;25147;52.142;9.960;2023-09-07T02:13:01;101179.91;;;14.66;100.00
39443;BME280;25147;52.142;9.960;2023-09-07T02:15:36;100991.59;;;13.56;100.00
39443;BME280;25147;52.142;9.960;2023-09-07T02:18:04;101248.25;;;15.17;100.00
39443;BME280;25147;52.142;9.960;2023-09-07T02:20:39;100990.91;;;13.47;100.00
39443;BME280;25147;52.142;9.960;2023-09-07T02:23:13;100942.34;;;13.16;100.00
39443;BME280;25147;52.142;9.960;2023-09-07T02:25:43;100983.81;;;13.52;100.00
39443;BME280;25147;52.142;9.960;2023-09-07T02:28:12;101079.13;;;14.11;100.00
39443;BME280;25147;52.142;9.960;2023-09-07T02:30:41;101047.78;;;13.99;100.00
39443;BME280;25147;52.142;9.960;2023-09-07T02:33:08;101227.38;;;15.07;100.00
39443;BME280;25147;52.142;9.960;2023-09-07T02:35:36;101100.91;;;14.21;100.00
39443;BME280;25147;52.142;9.960;2023-09-07T02:38:03;101221.63;;;14.88;100.00
39443;BME280;25147;52.142;9.960;2023-09-07T02:40:30;101263.31;;;15.12;100.00
39443;BME280;25147;52.142;9.960;2023-09-07T02:42:58;101236.19;;;15.05;100.00
39443;BME280;25147;52.142;9.960;2023-09-07T02:45:28;100966.50;;;13.40;100.00
39443;BME280;25147;52.142;9.960;2023-09-07T02:48:11;101081.31;;;13.91;100.00
39443;BME280;25147;52.142;9.960;2023-09-07T02:50:48;101245.19;;;14.95;100.00
39443;BME280;25147;52.142;9.960;2023-09-07T02:53:19;100983.56;;;13.14;100.00
39443;BME280;25147;52.142;9.960;2023-09-07T02:55:50;101062.44;;;13.65;100.00
39443;BME280;25147;52.142;9.960;2023-09-07T02:58:20;101197.09;;;14.39;100.00
39443;BME280;25147;52.142;9.960;2023-09-07T03:00:49;101165.94;;;14.16;100.00
39443;BME280;25147;52.142;9.960;2023-09-07T03:03:41;101129.19;;;14.10;100.00
39443;BME280;25147;52.142;9.960;2023-09-07T03:06:14;101249.03;;;14.79;100.00
39443;BME280;25147;52.142;9.960;2023-09-07T03:08:45;100950.66;;;12.93;100.00
39443;BME280;25147;52.142;9.960;2023-09-07T03:11:13;101229.00;;;14.72;100.00
39443;BME280;25147;52.142;9.960;2023-09-07T03:13:43;100900.31;;;12.68;100.00
39443;BME280;25147;52.142;9.960;2023-09-07T03:16:18;100994.16;;;13.11;100.00
39443;BME280;25147;52.142;9.960;2023-09-07T03:19:50;101129.44;;;13.97;100.00
39443;BME280;25147;52.142;9.960;2023-09-07T03:22:31;100969.19;;;12.84;100.00
39443;BME280;25147;52.142;9.960;2023-09-07T03:25:03;101153.13;;;13.97;100.00
39443;BME280;25147;52.142;9.960;2023-09-07T03:27:45;101047.84;;;13.49;100.00
39443;BME280;25147;52.142;9.960;2023-09-07T03:30:16;101252.13;;;14.54;100.00
39443;BME280;25147;52.142;9.960;2023-09-07T03:32:51;101059.31;;;13.45;100.00
39443;BME280;25147;52.142;9.960;2023-09-07T03:35:25;100948.44;;;12.69;100.00
39443;BME280;25147;52.142;9.960;2023-09-07T03:37:53;101240.78;;;14.51;100.00
39443;BME280;25147;52.142;9.960;2023-09-07T03:40:20;100978.84;;;12.85;100.00
39443;BME280;25147;52.142;9.960;2023-09-07T03:42:48;100994.44;;;12.94;100.00
39443;BME280;25147;52.142;9.960;2023-09-07T03:45:16;100971.88;;;12.82;100.00
39443;BME280;25147;52.142;9.960;2023-09-07T03:47:44;101046.53;;;13.23;100.00
39443;BME280;25147;52.142;9.960;2023-09-07T03:50:11;101170.22;;;13.72;100.00
39443;BME280;25147;52.142;9.960;2023-09-07T03:52:40;100879.31;;;12.11;100.00
39443;BME280;25147;52.142;9.960;2023-09-07T03:55:10;101052.81;;;13.15;100.00
39443;BME280;25147;52.142;9.960;2023-09-07T03:57:37;101239.53;;;14.23;100.00
39443;BME280;25147;52.142;9.960;2023-09-07T04:00:10;101122.41;;;13.50;100.00
39443;BME280;25147;52.142;9.960;2023-09-07T04:02:44;100954.84;;;12.52;100.00
39443;BME280;25147;52.142;9.960;2023-09-07T04:05:11;101249.34;;;14.15;100.00
39443;BME280;25147;52.142;9.960;2023-09-07T04:07:40;100954.88;;;12.49;100.00
39443;BME280;25147;52.142;9.960;2023-09-07T04:10:08;100975.16;;;12.39;100.00
39443;BME280;25147;52.142;9.960;2023-09-07T04:12:37;100966.28;;;12.48;100.00
39443;BME280;25147;52.142;9.960;2023-09-07T04:15:08;101242.28;;;14.19;100.00
39443;BME280;25147;52.142;9.960;2023-09-07T04:17:38;101049.56;;;12.99;100.00
39443;BME280;25147;52.142;9.960;2023-09-07T04:20:07;100964.78;;;12.32;100.00
39443;BME280;25147;52.142;9.960;2023-09-07T04:22:40;100935.09;;;12.25;100.00
39443;BME280;25147;52.142;9.960;2023-09-07T04:25:12;100936.28;;;12.04;100.00
39443;BME280;25147;52.142;9.960;2023-09-07T04:27:42;101071.47;;;12.98;100.00
39443;BME280;25147;52.142;9.960;2023-09-07T04:30:13;101061.91;;;12.94;100.00
39443;BME280;25147;52.142;9.960;2023-09-07T04:32:42;101155.88;;;13.40;100.00
39443;BME280;25147;52.142;9.960;2023-09-07T04:35:09;101254.22;;;13.85;100.00
39443;BME280;25147;52.142;9.960;2023-09-07T04:37:43;101155.94;;;13.35;100.00
39443;BME280;25147;52.142;9.960;2023-09-07T04:40:11;100956.34;;;12.08;100.00
39443;BME280;25147;52.142;9.960;2023-09-07T04:42:39;100998.09;;;12.25;100.00
39443;BME280;25147;52.142;9.960;2023-09-07T04:45:15;100951.28;;;11.94;100.00
39443;BME280;25147;52.142;9.960;2023-09-07T04:47:51;100968.53;;;12.14;100.00
39443;BME280;25147;52.142;9.960;2023-09-07T04:50:44;100970.16;;;12.21;100.00
39443;BME280;25147;52.142;9.960;2023-09-07T04:53:49;101262.81;;;13.98;100.00
39443;BME280;25147;52.142;9.960;2023-09-07T04:56:36;101263.66;;;14.00;100.00
39443;BME280;25147;52.142;9.960;2023-09-07T04:59:04;101063.88;;;12.79;100.00
39443;BME280;25147;52.142;9.960;2023-09-07T05:01:33;101103.19;;;12.87;100.00
39443;BME280;25147;52.142;9.960;2023-09-07T05:04:01;101310.19;;;13.98;100.00
39443;BME280;25147;52.142;9.960;2023-09-07T05:06:36;101038.97;;;12.46;100.00
39443;BME280;25147;52.142;9.960;2023-09-07T05:09:11;101275.91;;;14.01;100.00
39443;BME280;25147;52.142;9.960;2023-09-07T05:11:42;101032.97;;;12.38;100.00
39443;BME280;25147;52.142;9.960;2023-09-07T05:14:10;101231.66;;;13.72;100.00
39443;BME280;25147;52.142;9.960;2023-09-07T05:16:42;101001.66;;;12.22;100.00
39443;BME280;25147;52.142;9.960;2023-09-07T05:19:11;100961.66;;;12.05;100.00
39443;BME280;25147;52.142;9.960;2023-09-07T05:21:38;100992.94;;;12.19;100.00
39443;BME280;25147;52.142;9.960;2023-09-07T05:24:08;101068.53;;;12.62;100.00
39443;BME280;25147;52.142;9.960;2023-09-07T05:26:41;100979.03;;;12.14;100.00
39443;BME280;25147;52.142;9.960;2023-09-07T05:29:12;100934.66;;;11.97;100.00
39443;BME280;25147;52.142;9.960;2023-09-07T05:31:39;101104.03;;;12.89;100.00
39443;BME280;25147;52.142;9.960;2023-09-07T05:34:10;101278.44;;;14.08;100.00
39443;BME280;25147;52.142;9.960;2023-09-07T05:36:38;100972.94;;;12.10;100.00
39443;BME280;25147;52.142;9.960;2023-09-07T05:39:05;101047.34;;;12.73;100.00
39443;BME280;25147;52.142;9.960;2023-09-07T05:41:38;101115.19;;;13.05;100.00
39443;BME280;25147;52.142;9.960;2023-09-07T05:44:09;101299.59;;;14.03;100.00
39443;BME280;25147;52.142;9.960;2023-09-07T05:46:37;101272.34;;;14.04;100.00
39443;BME280;25147;52.142;9.960;2023-09-07T05:49:07;100978.09;;;12.18;100.00
39443;BME280;25147;52.142;9.960;2023-09-07T05:51:35;101082.91;;;12.97;100.00
39443;BME280;25147;52.142;9.960;2023-09-07T05:54:02;101208.38;;;13.46;100.00
39443;BME280;25147;52.142;9.960;2023-09-07T05:56:39;100982.34;;;12.28;100.00
39443;BME280;25147;52.142;9.960;2023-09-07T05:59:09;101020.34;;;12.61;100.00
39443;BME280;25147;52.142;9.960;2023-09-07T06:01:43;101158.41;;;13.46;100.00
39443;BME280;25147;52.142;9.960;2023-09-07T06:04:10;101280.09;;;14.13;100.00
39443;BME280;25147;52.142;9.960;2023-09-07T06:06:37;101085.44;;;13.03;100.00
39443;BME280;25147;52.142;9.960;2023-09-07T06:09:05;101163.56;;;13.52;100.00
39443;BME280;25147;52.142;9.960;2023-09-07T06:11:44;101157.47;;;13.49;100.00
39443;BME280;25147;52.142;9.960;2023-09-07T06:14:11;101070.66;;;12.94;100.00
39443;BME280;25147;52.142;9.960;2023-09-07T06:16:41;101297.47;;;14.25;100.00
39443;BME280;25147;52.142;9.960;2023-09-07T06:19:12;101282.44;;;14.29;100.00
39443;BME280;25147;52.142;9.960;2023-09-07T06:21:42;101139.41;;;13.25;100.00
39443;BME280;25147;52.142;9.960;2023-09-07T06:24:12;101047.06;;;12.90;100.00
39443;BME280;25147;52.142;9.960;2023-09-07T06:26:51;101141.84;;;13.39;100.00
39443;BME280;25147;52.142;9.960;2023-09-07T06:29:39;101289.09;;;14.51;100.00
39443;BME280;25147;52.142;9.960;2023-09-07T06:32:18;101136.22;;;13.59;100.00
39443;BME280;25147;52.142;9.960;2023-09-07T06:35:03;101110.09;;;13.52;100.00
39443;BME280;25147;52.142;9.960;2023-09-07T06:37:37;100985.78;;;12.89;100.00
39443;BME280;25147;52.142;9.960;2023-09-07T06:40:16;101307.13;;;14.76;100.00
39443;BME280;25147;52.142;9.960;2023-09-07T06:43:13;101300.78;;;14.84;100.00
39443;BME280;25147;52.142;9.960;2023-09-07T06:45:44;101181.63;;;14.20;100.00
39443;BME280;25147;52.142;9.960;2023-09-07T06:48:16;101179.69;;;14.32;100.00
39443;BME280;25147;52.142;9.960;2023-09-07T06:50:43;101216.31;;;14.45;100.00
39443;BME280;25147;52.142;9.960;2023-09-07T06:53:10;101066.72;;;13.73;100.00
39443;BME280;25147;52.142;9.960;2023-09-07T06:55:38;101064.00;;;13.77;100.00
39443;BME280;25147;52.142;9.960;2023-09-07T06:58:05;101038.78;;;13.65;100.00
39443;BME280;25147;52.142;9.960;2023-09-07T07:00:37;101097.66;;;14.07;100.00
39443;BME280;25147;52.142;9.960;2023-09-07T07:03:07;101331.50;;;15.31;100.00
39443;BME280;25147;52.142;9.960;2023-09-07T07:05:36;101120.69;;;14.39;100.00
39443;BME280;25147;52.142;9.960;2023-09-07T07:08:05;101293.25;;;15.50;100.00
39443;BME280;25147;52.142;9.960;2023-09-07T07:10:42;101312.34;;;15.61;100.00
39443;BME280;25147;52.142;9.960;2023-09-07T07:13:14;101114.06;;;14.63;100.00
39443;BME280;25147;52.142;9.960;2023-09-07T07:15:43;101169.41;;;15.03;100.00
39443;BME280;25147;52.142;9.960;2023-09-07T07:18:10;101109.41;;;14.76;100.00
39443;BME280;25147;52.142;9.960;2023-09-07T07:20:38;101275.72;;;15.87;100.00
39443;BME280;25147;52.142;9.960;2023-09-07T07:23:05;101283.41;;;15.96;100.00
39443;BME280;25147;52.142;9.960;2023-09-07T07:25:32;101238.44;;;15.61;100.00
39443;BME280;25147;52.142;9.960;2023-09-07T07:27:59;101300.34;;;16.23;100.00
39443;BME280;25147;52.142;9.960;2023-09-07T07:30:29;101292.31;;;16.26;100.00
39443;BME280;25147;52.142;9.960;2023-09-07T07:32:57;101044.22;;;14.84;100.00
39443;BME280;25147;52.142;9.960;2023-09-07T07:35:24;101121.00;;;15.43;100.00
39443;BME280;25147;52.142;9.960;2023-09-07T07:37:51;101275.06;;;16.45;100.00
39443;BME280;25147;52.142;9.960;2023-09-07T07:40:18;101251.59;;;16.35;100.00
39443;BME280;25147;52.142;9.960;2023-09-07T07:42:45;101265.91;;;16.59;100.00
39443;BME280;25147;52.142;9.960;2023-09-07T07:45:13;101297.00;;;16.83;100.00
39443;BME280;25147;52.142;9.960;2023-09-07T07:47:40;101296.69;;;16.94;100.00
39443;BME280;25147;52.142;9.960;2023-09-07T07:50:09;101300.84;;;17.03;100.00
39443;BME280;25147;52.142;9.960;2023-09-07T07:52:36;101275.16;;;17.07;100.00
39443;BME280;25147;52.142;9.960;2023-09-07T07:55:04;101305.38;;;17.29;100.00
39443;BME280;25147;52.142;9.960;2023-09-07T07:57:32;101310.41;;;17.38;100.00
39443;BME280;25147;52.142;9.960;2023-09-07T07:59:59;101284.63;;;17.43;100.00
39443;BME280;25147;52.142;9.960;2023-09-07T08:02:25;101310.47;;;17.65;100.00
39443;BME280;25147;52.142;9.960;2023-09-07T08:04:53;101308.41;;;17.75;100.00
39443;BME280;25147;52.142;9.960;2023-09-07T08:07:21;101272.44;;;17.66;100.00
39443;BME280;25147;52.142;9.960;2023-09-07T08:09:49;101120.47;;;16.90;100.00
39443;BME280;25147;52.142;9.960;2023-09-07T08:12:17;101225.97;;;17.57;100.00
39443;BME280;25147;52.142;9.960;2023-09-07T08:14:43;101283.41;;;18.10;100.00
39443;BME280;25147;52.142;9.960;2023-09-07T08:17:16;100993.09;;;16.48;100.00
39443;BME280;25147;52.142;9.960;2023-09-07T08:19:52;101285.88;;;18.41;100.00
39443;BME280;25147;52.142;9.960;2023-09-07T08:22:27;101286.81;;;18.40;100.00
39443;BME280;25147;52.142;9.960;2023-09-07T08:25:03;101086.47;;;17.33;100.00
39443;BME280;25147;52.142;9.960;2023-09-07T08:27:31;101117.84;;;17.70;100.00
39443;BME280;25147;52.142;9.960;2023-09-07T08:30:06;101199.47;;;18.11;100.00
39443;BME280;25147;52.142;9.960;2023-09-07T08:32:57;101273.91;;;18.80;100.00
39443;BME280;25147;52.142;9.960;2023-09-07T08:35:33;100993.22;;;17.24;100.00
39443;BME280;25147;52.142;9.960;2023-09-07T08:38:33;101017.53;;;17.36;100.00
39443;BME280;25147;52.142;9.960;2023-09-07T08:41:10;101113.84;;;18.09;100.00
39443;BME280;25147;52.142;9.960;2023-09-07T08:43:46;101095.34;;;18.07;100.00
39443;BME280;25147;52.142;9.960;2023-09-07T08:46:27;101180.63;;;18.67;100.00
39443;BME280;25147;52.142;9.960;2023-09-07T08:49:06;101119.09;;;18.34;100.00
39443;BME280;25147;52.142;9.960;2023-09-07T08:51:40;101048.28;;;17.90;100.00
39443;BME280;25147;52.142;9.960;2023-09-07T08:58:11;101017.78;;;18.03;99.88
39443;BME280;25147;52.142;9.960;2023-09-07T09:01:35;101154.91;;;18.93;99.41
39443;BME280;25147;52.142;9.960;2023-09-07T09:04:13;101009.41;;;18.14;98.83
39443;BME280;25147;52.142;9.960;2023-09-07T09:09:30;101290.78;;;20.14;97.05
39443;BME280;25147;52.142;9.960;2023-09-07T09:38:16;101172.81;;;20.17;93.02
39443;BME280;25147;52.142;9.960;2023-09-07T09:48:27;101273.69;;;21.21;89.49
39443;BME280;25147;52.142;9.960;2023-09-07T09:50:55;101014.50;;;19.91;88.11
39443;BME280;25147;52.142;9.960;2023-09-07T09:53:35;101153.16;;;20.79;87.59
39443;BME280;25147;52.142;9.960;2023-09-07T09:56:08;101269.66;;;21.50;87.04
39443;BME280;25147;52.142;9.960;2023-09-07T09:58:51;101005.75;;;20.27;85.42
39443;BME280;25147;52.142;9.960;2023-09-07T10:01:57;101153.75;;;21.22;85.20
39443;BME280;25147;52.142;9.960;2023-09-07T10:04:28;101137.13;;;21.17;84.92
39443;BME280;25147;52.142;9.960;2023-09-07T10:07:05;101143.81;;;21.26;84.92
39443;BME280;25147;52.142;9.960;2023-09-07T10:09:38;101059.97;;;20.62;84.14
39443;BME280;25147;52.142;9.960;2023-09-07T10:12:12;101246.19;;;21.93;83.66
39443;BME280;25147;52.142;9.960;2023-09-07T10:15:03;101084.25;;;21.10;82.61
39443;BME280;25147;52.142;9.960;2023-09-07T10:17:45;101091.63;;;21.22;80.97
39443;BME280;25147;52.142;9.960;2023-09-07T10:20:20;101239.78;;;22.15;80.52
39443;BME280;25147;52.142;9.960;2023-09-07T10:22:49;101145.84;;;21.75;78.73
39443;BME280;25147;52.142;9.960;2023-09-07T10:25:24;100959.13;;;20.75;78.44
39443;BME280;25147;52.142;9.960;2023-09-07T10:28:29;101172.88;;;22.02;78.56
39443;BME280;25147;52.142;9.960;2023-09-07T10:31:40;100979.56;;;21.09;76.94
39443;BME280;25147;52.142;9.960;2023-09-07T10:34:34;101246.47;;;22.74;75.18
39443;BME280;25147;52.142;9.960;2023-09-07T10:37:17;100980.50;;;21.26;74.04
39443;BME280;25147;52.142;9.960;2023-09-07T10:39:53;101104.31;;;22.04;73.27
39443;BME280;25147;52.142;9.960;2023-09-07T10:42:37;101166.88;;;22.49;72.72
39443;BME280;25147;52.142;9.960;2023-09-07T10:45:16;101078.53;;;22.20;72.57
39443;BME280;25147;52.142;9.960;2023-09-07T10:47:48;100994.44;;;21.81;72.37
39443;BME280;25147;52.142;9.960;2023-09-07T10:50:23;100978.25;;;21.69;71.88
39443;BME280;25147;52.142;9.960;2023-09-07T10:52:50;101233.09;;;23.39;70.91
39443;BME280;25147;52.142;9.960;2023-09-07T10:55:19;100937.16;;;21.73;70.95
39443;BME280;25147;52.142;9.960;2023-09-07T10:57:57;101215.94;;;23.43;72.17
39443;BME280;25147;52.142;9.960;2023-09-07T11:00:31;100943.34;;;21.73;71.78
39443;BME280;25147;52.142;9.960;2023-09-07T11:03:30;101229.13;;;23.47;71.08
39443;BME280;25147;52.142;9.960;2023-09-07T11:06:08;101006.63;;;22.19;70.81
39443;BME280;25147;52.142;9.960;2023-09-07T11:08:41;101029.66;;;22.53;70.27
39443;BME280;25147;52.142;9.960;2023-09-07T11:11:48;101211.84;;;23.68;70.95
39443;BME280;25147;52.142;9.960;2023-09-07T11:14:28;101201.56;;;23.76;69.73
39443;BME280;25147;52.142;9.960;2023-09-07T11:17:07;101215.56;;;23.81;70.15
39443;BME280;25147;52.142;9.960;2023-09-07T11:20:20;100953.56;;;22.30;70.60
39443;BME280;25147;52.142;9.960;2023-09-07T11:23:05;100909.19;;;22.29;69.76
39443;BME280;25147;52.142;9.960;2023-09-07T11:25:36;101001.03;;;22.71;68.67
39443;BME280;25147;52.142;9.960;2023-09-07T11:28:09;101032.75;;;23.08;68.74
39443;BME280;25147;52.142;9.960;2023-09-07T11:30:53;101135.59;;;23.77;68.37
39443;BME280;25147;52.142;9.960;2023-09-07T11:33:38;101211.69;;;24.16;67.86
39443;BME280;25147;52.142;9.960;2023-09-07T11:36:08;101005.28;;;23.06;67.42
39443;BME280;25147;52.142;9.960;2023-09-07T11:38:36;101101.28;;;23.69;67.30
39443;BME280;25147;52.142;9.960;2023-09-07T11:41:11;100953.50;;;22.78;67.07
39443;BME280;25147;52.142;9.960;2023-09-07T11:43:42;101194.03;;;24.28;67.34
39443;BME280;25147;52.142;9.960;2023-09-07T11:46:12;101184.19;;;24.28;66.69
39443;BME280;25147;52.142;9.960;2023-09-07T11:48:39;101117.75;;;23.77;66.41
39443;BME280;25147;52.142;9.960;2023-09-07T11:51:07;101031.53;;;23.43;66.15
39443;BME280;25147;52.142;9.960;2023-09-07T11:53:39;100929.63;;;22.75;66.32
39443;BME280;25147;52.142;9.960;2023-09-07T11:56:07;101057.53;;;23.56;65.21
39443;BME280;25147;52.142;9.960;2023-09-07T11:58:36;100966.88;;;23.08;65.00
39443;BME280;25147;52.142;9.960;2023-09-07T12:01:03;100942.63;;;23.11;65.10
39443;BME280;25147;52.142;9.960;2023-09-07T12:03:34;101048.84;;;23.67;64.50
39443;BME280;25147;52.142;9.960;2023-09-07T12:06:01;101023.94;;;23.66;63.92
39443;BME280;25147;52.142;9.960;2023-09-07T12:08:28;101017.53;;;23.69;63.69
39443;BME280;25147;52.142;9.960;2023-09-07T12:10:55;101062.00;;;24.00;63.92
39443;BME280;25147;52.142;9.960;2023-09-07T12:13:22;101174.88;;;24.64;63.42
39443;BME280;25147;52.142;9.960;2023-09-07T12:15:51;101169.97;;;24.71;62.86
39443;BME280;25147;52.142;9.960;2023-09-07T12:18:20;101026.47;;;23.98;62.84
39443;BME280;25147;52.142;9.960;2023-09-07T12:20:52;101170.25;;;24.80;63.00
39443;BME280;25147;52.142;9.960;2023-09-07T12:23:21;100989.75;;;23.71;63.31
39443;BME280;25147;52.142;9.960;2023-09-07T12:25:50;100941.22;;;23.49;63.54
39443;BME280;25147;52.142;9.960;2023-09-07T12:28:20;101165.34;;;24.87;63.05
39443;BME280;25147;52.142;9.960;2023-09-07T12:30:47;101152.84;;;24.88;62.27
39443;BME280;25147;52.142;9.960;2023-09-07T12:33:17;101157.97;;;24.91;61.86
39443;BME280;25147;52.142;9.960;2023-09-07T12:35:43;101138.16;;;24.93;61.86
39443;BME280;25147;52.142;9.960;2023-09-07T12:38:16;101075.34;;;24.43;62.14
39443;BME280;25147;52.142;9.960;2023-09-07T12:40:49;101053.06;;;24.42;62.10
39443;BME280;25147;52.142;9.960;2023-09-07T12:43:22;101003.88;;;24.16;61.70
39443;BME280;25147;52.142;9.960;2023-09-07T12:45:52;101142.09;;;25.02;61.58
39443;BME280;25147;52.142;9.960;2023-09-07T12:48:24;101167.09;;;25.15;61.33
39443;BME280;25147;52.142;9.960;2023-09-07T12:50:53;101041.28;;;24.45;61.19
39443;BME280;25147;52.142;9.960;2023-09-07T12:53:22;100937.47;;;23.81;61.14
39443;BME280;25147;52.142;9.960;2023-09-07T12:55:51;101147.56;;;25.28;60.27
39443;BME280;25147;52.142;9.960;2023-09-07T12:58:18;101143.72;;;25.32;60.22
39443;BME280;25147;52.142;9.960;2023-09-07T13:00:46;101028.34;;;24.66;60.08
39443;BME280;25147;52.142;9.960;2023-09-07T13:03:16;101141.28;;;25.41;59.79
39443;BME280;25147;52.142;9.960;2023-09-07T13:05:43;101111.78;;;25.29;60.13
39443;BME280;25147;52.142;9.960;2023-09-07T13:08:10;101146.56;;;25.43;60.58
39443;BME280;25147;52.142;9.960;2023-09-07T13:10:39;100911.84;;;24.19;60.35
39443;BME280;25147;52.142;9.960;2023-09-07T13:13:13;101152.34;;;25.50;60.11
39443;BME280;25147;52.142;9.960;2023-09-07T13:16:02;101132.50;;;25.52;59.80
39443;BME280;25147;52.142;9.960;2023-09-07T13:18:29;101047.47;;;25.01;59.87
39443;BME280;25147;52.142;9.960;2023-09-07T13:20:56;101060.53;;;25.06;59.61
39443;BME280;25147;52.142;9.960;2023-09-07T13:23:25;100878.41;;;24.12;59.10
39443;BME280;25147;52.142;9.960;2023-09-07T13:25:54;101110.53;;;25.60;59.21
39443;BME280;25147;52.142;9.960;2023-09-07T13:28:21;101116.66;;;25.62;58.49
39443;BME280;25147;52.142;9.960;2023-09-07T13:30:48;101122.34;;;25.70;58.20
39443;BME280;25147;52.142;9.960;2023-09-07T13:33:18;101075.78;;;25.46;57.27
39443;BME280;25147;52.142;9.960;2023-09-07T13:38:53;100880.84;;;24.29;57.65
39443;BME280;25147;52.142;9.960;2023-09-07T13:41:24;100955.56;;;24.87;57.56
39443;BME280;25147;52.142;9.960;2023-09-07T13:43:52;101104.31;;;25.72;57.63
39443;BME280;25147;52.142;9.960;2023-09-07T13:46:20;101055.91;;;25.48;57.46
39443;BME280;25147;52.142;9.960;2023-09-07T13:48:48;101104.31;;;25.72;56.98
39443;BME280;25147;52.142;9.960;2023-09-07T13:51:16;101057.75;;;25.48;56.92
39443;BME280;25147;52.142;9.960;2023-09-07T13:53:43;101092.66;;;25.73;56.24